createdAt,value
2018-06-24T00:00:05.027Z,0
2018-06-24T00:01:15.145Z,0
2018-06-24T00:02:25.247Z,0
2018-06-24T00:03:35.309Z,0
2018-06-24T00:04:45.125Z,0
2018-06-24T00:05:55.218Z,0
2018-06-24T00:07:05.294Z,0
2018-06-24T00:08:15.370Z,0
2018-06-24T00:09:25.437Z,0
2018-06-24T00:10:35.508Z,0
2018-06-24T00:11:45.569Z,0
2018-06-24T00:12:55.397Z,0
2018-06-24T00:14:05.656Z,0
2018-06-24T00:15:15.470Z,0
2018-06-24T00:16:25.567Z,0
2018-06-24T00:17:35.401Z,0
2018-06-24T00:18:46.599Z,0
2018-06-24T00:19:56.668Z,0
2018-06-24T00:21:06.756Z,0
2018-06-24T00:22:16.828Z,0
2018-06-24T00:23:26.902Z,0
2018-06-24T00:24:36.803Z,0
2018-06-24T00:25:46.906Z,0
2018-06-24T00:26:57.068Z,0
2018-06-24T00:28:07.144Z,0
2018-06-24T00:29:17.273Z,0
2018-06-24T00:30:27.344Z,0
2018-06-24T00:31:37.421Z,0
2018-06-24T00:32:47.487Z,0
2018-06-24T00:33:57.575Z,0
2018-06-24T00:35:07.641Z,0
2018-06-24T00:36:17.746Z,0
2018-06-24T00:37:27.980Z,0
2018-06-24T00:38:38.050Z,0
2018-06-24T00:39:48.116Z,0
2018-06-24T00:40:58.190Z,0
2018-06-24T00:42:07.995Z,0
2018-06-24T00:43:18.063Z,0
2018-06-24T00:44:28.149Z,0
2018-06-24T00:45:38.213Z,0
2018-06-24T00:46:48.283Z,0
2018-06-24T00:47:58.366Z,0
2018-06-24T00:49:08.189Z,0
2018-06-24T00:50:18.274Z,0
2018-06-24T00:51:28.352Z,0
2018-06-24T00:52:38.427Z,0
2018-06-24T00:53:48.275Z,0
2018-06-24T00:54:58.354Z,0
2018-06-24T00:56:08.436Z,0
2018-06-24T00:57:18.241Z,0
2018-06-24T00:58:28.064Z,0
2018-06-24T00:59:38.186Z,0
2018-06-24T01:00:48.258Z,0
2018-06-24T01:01:58.370Z,0
2018-06-24T01:03:08.427Z,0
2018-06-24T01:04:18.497Z,0
2018-06-24T01:05:28.604Z,0
2018-06-24T01:06:38.679Z,0
2018-06-24T01:07:48.776Z,0
2018-06-24T01:08:58.846Z,0
2018-06-24T01:10:08.914Z,0
2018-06-24T01:11:18.732Z,0
2018-06-24T01:12:28.795Z,0
2018-06-24T01:13:38.845Z,0
2018-06-24T01:14:48.941Z,0
2018-06-24T01:15:58.998Z,0
2018-06-24T01:17:09.081Z,0
2018-06-24T01:18:18.890Z,0
2018-06-24T01:19:28.951Z,0
2018-06-24T01:20:39.011Z,0
2018-06-24T01:21:48.570Z,0
2018-06-24T01:22:58.705Z,0
2018-06-24T01:24:08.777Z,0
2018-06-24T01:25:18.854Z,0
2018-06-24T01:26:28.917Z,0
2018-06-24T01:27:38.730Z,0
2018-06-24T01:28:48.844Z,0
2018-06-24T01:29:58.907Z,0
2018-06-24T01:31:08.728Z,0
2018-06-24T01:32:18.784Z,0
2018-06-24T01:33:28.840Z,0
2018-06-24T01:34:38.931Z,0
2018-06-24T01:35:49.001Z,0
2018-06-24T01:36:58.810Z,0
2018-06-24T01:38:08.879Z,0
2018-06-24T01:39:18.694Z,0
2018-06-24T01:40:28.763Z,0
2018-06-24T01:41:38.838Z,0
2018-06-24T01:42:48.907Z,0
2018-06-24T01:43:58.975Z,0
2018-06-24T01:45:09.045Z,0
2018-06-24T01:46:19.180Z,0
2018-06-24T01:47:29.348Z,0
2018-06-24T01:48:39.155Z,0
2018-06-24T01:49:49.229Z,0
2018-06-24T01:50:59.040Z,0
2018-06-24T01:52:08.897Z,0
2018-06-24T01:53:18.954Z,0
2018-06-24T01:54:28.760Z,0
2018-06-24T01:55:38.907Z,0
2018-06-24T01:56:48.982Z,0
2018-06-24T01:57:59.072Z,0
2018-06-24T01:59:09.137Z,0
2018-06-24T02:00:19.216Z,0
2018-06-24T02:01:29.307Z,0
2018-06-24T02:02:39.370Z,0
2018-06-24T02:03:48.956Z,0
2018-06-24T02:04:58.756Z,0
2018-06-24T02:06:08.822Z,0
2018-06-24T02:07:18.883Z,0
2018-06-24T02:08:28.951Z,0
2018-06-24T02:09:38.807Z,0
2018-06-24T02:10:48.352Z,0
2018-06-24T02:11:58.142Z,0
2018-06-24T02:13:08.227Z,0
2018-06-24T02:14:18.297Z,0
2018-06-24T02:15:28.136Z,0
2018-06-24T02:16:38.213Z,0
2018-06-24T02:17:48.284Z,0
2018-06-24T02:18:58.355Z,0
2018-06-24T02:20:08.436Z,0
2018-06-24T02:21:18.562Z,0
2018-06-24T02:22:28.647Z,0
2018-06-24T02:23:38.699Z,0
2018-06-24T02:24:48.792Z,0
2018-06-24T02:26:16.133Z,0
2018-06-24T02:27:26.216Z,0
2018-06-24T02:28:36.298Z,0
2018-06-24T02:29:46.369Z,0
2018-06-24T02:30:56.429Z,0
2018-06-24T02:32:06.559Z,0
2018-06-24T02:33:16.106Z,0
2018-06-24T02:34:26.183Z,0
2018-06-24T02:35:36.254Z,0
2018-06-24T02:36:46.085Z,0
2018-06-24T02:37:56.139Z,0
2018-06-24T02:39:06.235Z,0
2018-06-24T02:40:16.322Z,0
2018-06-24T02:41:26.396Z,0
2018-06-24T02:42:36.469Z,0
2018-06-24T02:43:46.269Z,0
2018-06-24T02:44:56.340Z,0
2018-06-24T02:46:06.424Z,0
2018-06-24T02:47:16.490Z,0
2018-06-24T02:48:26.573Z,0
2018-06-24T02:49:36.640Z,0
2018-06-24T02:50:46.447Z,0
2018-06-24T02:51:56.522Z,0
2018-06-24T02:53:06.363Z,0
2018-06-24T02:54:16.196Z,0
2018-06-24T02:55:26.271Z,0
2018-06-24T02:56:36.087Z,0
2018-06-24T02:57:45.907Z,0
2018-06-24T02:58:55.757Z,0
2018-06-24T03:00:05.846Z,0
2018-06-24T03:01:15.949Z,0
2018-06-24T03:02:26.018Z,0
2018-06-24T03:34:16.400Z,20
2018-06-24T03:35:26.462Z,20
2018-06-24T03:36:36.518Z,20
2018-06-24T03:37:46.570Z,25
2018-06-24T03:38:56.367Z,25
2018-06-24T03:40:06.217Z,25
2018-06-24T03:41:16.281Z,30
2018-06-24T03:42:26.092Z,30
2018-06-24T03:43:36.157Z,30
2018-06-24T03:44:45.966Z,35
2018-06-24T03:45:55.558Z,35
2018-06-24T03:47:05.613Z,35
2018-06-24T03:48:15.680Z,35
2018-06-24T03:49:25.753Z,35
2018-06-24T03:50:35.813Z,35
2018-06-24T03:51:45.884Z,35
2018-06-24T03:52:55.940Z,40
2018-06-24T03:54:06.024Z,40
2018-06-24T03:55:15.564Z,40
2018-06-24T03:56:25.632Z,40
2018-06-24T03:57:35.748Z,45
2018-06-24T03:58:45.828Z,45
2018-06-24T03:59:55.641Z,40
2018-06-24T04:01:05.705Z,40
2018-06-24T04:02:15.781Z,35
2018-06-24T04:03:25.900Z,40
2018-06-24T04:04:35.706Z,35
2018-06-24T04:05:45.825Z,35
2018-06-24T04:06:55.887Z,40
2018-06-24T04:08:05.973Z,45
2018-06-24T04:09:16.037Z,45
2018-06-24T04:10:26.111Z,45
2018-06-24T04:11:35.926Z,50
2018-06-24T04:12:45.738Z,50
2018-06-24T04:13:55.808Z,50
2018-06-24T04:15:05.914Z,50
2018-06-24T04:16:15.992Z,55
2018-06-24T04:17:26.048Z,60
2018-06-24T04:18:36.165Z,65
2018-06-24T04:19:46.225Z,65
2018-06-24T04:20:56.294Z,65
2018-06-24T04:22:06.374Z,70
2018-06-24T04:23:16.176Z,70
2018-06-24T04:24:25.717Z,75
2018-06-24T04:25:35.837Z,80
2018-06-24T04:26:45.932Z,90
2018-06-24T04:27:55.996Z,85
2018-06-24T04:29:06.066Z,90
2018-06-24T04:30:16.166Z,95
2018-06-24T04:31:26.238Z,95
2018-06-24T04:32:36.306Z,100
2018-06-24T04:33:46.482Z,100
2018-06-24T04:34:56.025Z,100
2018-06-24T04:36:06.098Z,105
2018-06-24T04:37:16.183Z,105
2018-06-24T04:38:26.325Z,110
2018-06-24T04:39:36.126Z,115
2018-06-24T04:40:46.200Z,120
2018-06-24T04:41:56.281Z,130
2018-06-24T04:43:06.341Z,130
2018-06-24T04:44:16.171Z,165
2018-06-24T04:45:26.250Z,165
2018-06-24T04:46:36.325Z,485
2018-06-24T04:47:46.393Z,195
2018-06-24T04:48:56.217Z,270
2018-06-24T04:50:06.297Z,165
2018-06-24T04:51:16.383Z,165
2018-06-24T04:52:26.452Z,135
2018-06-24T04:53:36.562Z,125
2018-06-24T04:54:46.635Z,135
2018-06-24T04:55:56.730Z,160
2018-06-24T04:57:06.813Z,165
2018-06-24T04:58:16.877Z,165
2018-06-24T04:59:26.940Z,165
2018-06-24T05:00:37.022Z,170
2018-06-24T05:01:47.075Z,165
2018-06-24T05:02:56.872Z,165
2018-06-24T05:04:06.681Z,155
2018-06-24T05:05:16.749Z,155
2018-06-24T05:06:26.954Z,165
2018-06-24T05:07:37.080Z,185
2018-06-24T05:08:47.145Z,205
2018-06-24T05:09:57.206Z,210
2018-06-24T05:11:07.280Z,220
2018-06-24T05:12:17.359Z,310
2018-06-24T05:13:27.167Z,260
2018-06-24T05:14:36.990Z,220
2018-06-24T05:15:46.789Z,205
2018-06-24T05:16:56.860Z,205
2018-06-24T05:18:06.409Z,195
2018-06-24T05:19:16.472Z,185
2018-06-24T05:20:26.544Z,175
2018-06-24T05:21:36.613Z,165
2018-06-24T05:22:46.702Z,165
2018-06-24T05:23:56.800Z,170
2018-06-24T05:25:06.878Z,170
2018-06-24T05:26:16.950Z,180
2018-06-24T05:27:27.065Z,185
2018-06-24T05:28:37.151Z,200
2018-06-24T05:29:47.224Z,205
2018-06-24T05:30:57.045Z,215
2018-06-24T05:32:07.118Z,225
2018-06-24T05:33:16.930Z,225
2018-06-24T05:34:27.011Z,230
2018-06-24T05:35:37.079Z,225
2018-06-24T05:36:46.616Z,225
2018-06-24T05:37:56.556Z,220
2018-06-24T05:39:06.368Z,215
2018-06-24T05:40:16.420Z,200
2018-06-24T05:41:26.506Z,195
2018-06-24T05:42:36.641Z,185
2018-06-24T05:43:46.762Z,175
2018-06-24T05:44:56.833Z,165
2018-06-24T05:46:06.920Z,160
2018-06-24T05:47:16.995Z,155
2018-06-24T05:48:27.089Z,155
2018-06-24T05:49:37.172Z,160
2018-06-24T05:50:47.261Z,155
2018-06-24T05:51:57.339Z,155
2018-06-24T05:53:07.452Z,145
2018-06-24T05:54:17.705Z,145
2018-06-24T05:55:27.518Z,145
2018-06-24T05:56:37.599Z,145
2018-06-24T05:57:47.146Z,145
2018-06-24T05:58:57.224Z,140
2018-06-24T06:00:07.314Z,140
2018-06-24T06:01:17.120Z,135
2018-06-24T06:02:27.191Z,140
2018-06-24T06:03:37.009Z,145
2018-06-24T06:04:47.096Z,145
2018-06-24T06:05:57.004Z,140
2018-06-24T06:07:07.083Z,135
2018-06-24T06:08:16.895Z,145
2018-06-24T06:09:26.709Z,165
2018-06-24T06:10:37.228Z,190
2018-06-24T06:11:47.424Z,185
2018-06-24T06:12:56.979Z,170
2018-06-24T06:14:07.070Z,160
2018-06-24T06:15:16.870Z,160
2018-06-24T06:16:26.945Z,170
2018-06-24T06:17:36.758Z,175
2018-06-24T06:18:46.839Z,180
2018-06-24T06:19:56.929Z,180
2018-06-24T06:21:06.740Z,175
2018-06-24T06:22:16.823Z,170
2018-06-24T06:23:26.689Z,170
2018-06-24T06:24:36.764Z,180
2018-06-24T06:25:46.579Z,185
2018-06-24T06:26:56.894Z,195
2018-06-24T06:28:06.728Z,210
2018-06-24T06:29:16.556Z,215
2018-06-24T06:30:27.281Z,210
2018-06-24T06:31:37.122Z,215
2018-06-24T06:32:47.198Z,215
2018-06-24T06:33:56.996Z,230
2018-06-24T06:35:07.096Z,225
2018-06-24T06:36:17.228Z,240
2018-06-24T06:37:27.304Z,240
2018-06-24T06:38:37.131Z,240
2018-06-24T06:39:47.219Z,235
2018-06-24T06:40:57.297Z,225
2018-06-24T06:42:07.372Z,205
2018-06-24T06:43:17.460Z,195
2018-06-24T06:44:27.548Z,180
2018-06-24T06:45:39.272Z,185
2018-06-24T06:46:49.197Z,190
2018-06-24T06:47:59.285Z,195
2018-06-24T06:49:09.352Z,195
2018-06-24T06:50:19.433Z,205
2018-06-24T06:51:29.532Z,210
2018-06-24T06:52:39.606Z,210
2018-06-24T06:53:49.409Z,250
2018-06-24T06:54:59.551Z,245
2018-06-24T06:56:09.654Z,305
2018-06-24T06:57:19.749Z,325
2018-06-24T06:58:29.860Z,270
2018-06-24T06:59:39.943Z,320
2018-06-24T07:00:49.760Z,280
2018-06-24T07:01:59.575Z,310
2018-06-24T07:03:09.648Z,325
2018-06-24T07:04:19.725Z,340
2018-06-24T07:05:29.802Z,355
2018-06-24T07:06:39.864Z,360
2018-06-24T07:07:49.955Z,325
2018-06-24T07:09:00.044Z,295
2018-06-24T07:10:10.175Z,270
2018-06-24T07:11:20.004Z,240
2018-06-24T07:12:30.083Z,240
2018-06-24T07:13:40.165Z,245
2018-06-24T07:14:49.973Z,240
2018-06-24T07:16:00.075Z,240
2018-06-24T07:17:10.139Z,220
2018-06-24T07:18:20.233Z,220
2018-06-24T07:19:30.048Z,210
2018-06-24T07:20:40.133Z,200
2018-06-24T07:21:49.940Z,205
2018-06-24T07:22:59.998Z,215
2018-06-24T07:24:10.120Z,220
2018-06-24T07:25:19.925Z,230
2018-06-24T07:26:29.771Z,230
2018-06-24T07:27:40.039Z,230
2018-06-24T07:28:50.127Z,230
2018-06-24T07:29:59.939Z,260
2018-06-24T07:31:10.035Z,295
2018-06-24T07:32:19.844Z,325
2018-06-24T07:33:30.334Z,325
2018-06-24T07:34:40.237Z,335
2018-06-24T07:35:50.347Z,345
2018-06-24T07:37:00.447Z,375
2018-06-24T07:38:10.531Z,350
2018-06-24T07:39:21.163Z,330
2018-06-24T07:40:30.975Z,325
2018-06-24T07:41:40.808Z,310
2018-06-24T07:42:50.902Z,305
2018-06-24T07:44:01.017Z,315
2018-06-24T07:45:10.833Z,310
2018-06-24T07:46:20.914Z,315
2018-06-24T07:47:31.002Z,330
2018-06-24T07:48:41.074Z,330
2018-06-24T07:49:51.157Z,335
2018-06-24T07:51:01.257Z,320
2018-06-24T07:52:11.093Z,310
2018-06-24T07:53:20.908Z,295
2018-06-24T07:54:31.012Z,290
2018-06-24T07:55:40.549Z,315
2018-06-24T07:56:50.641Z,335
2018-06-24T07:58:00.207Z,330
2018-06-24T07:59:10.285Z,320
2018-06-24T08:00:20.376Z,290
2018-06-24T08:01:29.681Z,265
2018-06-24T08:02:39.752Z,280
2018-06-24T08:03:49.852Z,305
2018-06-24T08:04:59.951Z,325
2018-06-24T08:06:10.046Z,350
2018-06-24T08:07:20.127Z,360
2018-06-24T08:08:30.263Z,360
2018-06-24T08:09:40.379Z,365
2018-06-24T08:10:50.207Z,370
2018-06-24T08:12:00.296Z,360
2018-06-24T08:13:10.368Z,340
2018-06-24T08:14:20.492Z,350
2018-06-24T08:15:30.575Z,385
2018-06-24T08:16:40.663Z,355
2018-06-24T08:17:50.747Z,355
2018-06-24T08:19:00.832Z,320
2018-06-24T08:20:10.977Z,275
2018-06-24T08:21:21.125Z,235
2018-06-24T08:22:31.196Z,210
2018-06-24T08:23:41.287Z,205
2018-06-24T08:24:51.370Z,215
2018-06-24T08:26:01.478Z,220
2018-06-24T08:27:11.554Z,225
2018-06-24T08:28:21.652Z,250
2018-06-24T08:29:31.472Z,270
2018-06-24T08:30:41.555Z,305
2018-06-24T08:31:51.629Z,355
2018-06-24T08:33:01.717Z,370
2018-06-24T08:34:11.542Z,395
2018-06-24T08:35:21.648Z,375
2018-06-24T08:36:31.736Z,380
2018-06-24T08:37:41.843Z,380
2018-06-24T08:38:51.922Z,400
2018-06-24T08:40:02.021Z,410
2018-06-24T08:41:12.108Z,405
2018-06-24T08:42:22.195Z,410
2018-06-24T08:43:32.286Z,415
2018-06-24T08:44:42.094Z,410
2018-06-24T08:45:51.916Z,405
2018-06-24T08:47:01.984Z,395
2018-06-24T08:48:11.829Z,380
2018-06-24T08:49:21.984Z,360
2018-06-24T08:50:31.845Z,365
2018-06-24T08:51:41.913Z,340
2018-06-24T08:52:52.037Z,365
2018-06-24T08:54:02.157Z,350
2018-06-24T08:55:12.309Z,375
2018-06-24T08:56:22.398Z,360
2018-06-24T08:57:32.453Z,365
2018-06-24T08:58:42.532Z,370
2018-06-24T08:59:52.628Z,370
2018-06-24T09:01:02.805Z,370
2018-06-24T09:02:12.878Z,310
2018-06-24T09:03:22.726Z,305
2018-06-24T09:04:32.797Z,290
2018-06-24T09:05:42.633Z,285
2018-06-24T09:06:52.747Z,290
2018-06-24T09:08:02.376Z,290
2018-06-24T09:09:12.478Z,285
2018-06-24T09:10:22.575Z,290
2018-06-24T09:11:32.688Z,295
2018-06-24T09:12:42.784Z,300
2018-06-24T09:13:52.877Z,305
2018-06-24T09:15:02.845Z,315
2018-06-24T09:16:12.943Z,325
2018-06-24T09:17:22.778Z,335
2018-06-24T09:18:32.663Z,375
2018-06-24T09:19:42.484Z,380
2018-06-24T09:20:52.578Z,360
2018-06-24T09:22:02.756Z,350
2018-06-24T09:23:12.401Z,350
2018-06-24T09:24:22.537Z,355
2018-06-24T09:25:32.638Z,350
2018-06-24T09:26:42.736Z,340
2018-06-24T09:27:52.412Z,330
2018-06-24T09:29:01.986Z,320
2018-06-24T09:30:12.090Z,305
2018-06-24T09:31:21.943Z,235
2018-06-24T09:32:32.037Z,220
2018-06-24T09:33:41.866Z,200
2018-06-24T09:34:51.981Z,180
2018-06-24T09:36:02.128Z,170
2018-06-24T09:37:11.687Z,155
2018-06-24T09:38:21.537Z,145
2018-06-24T09:39:31.355Z,145
2018-06-24T09:40:41.480Z,145
2018-06-24T09:41:51.661Z,155
2018-06-24T09:43:01.782Z,165
2018-06-24T09:44:11.870Z,190
2018-06-24T09:45:21.471Z,215
2018-06-24T09:46:31.565Z,245
2018-06-24T09:47:41.498Z,265
2018-06-24T09:48:51.327Z,350
2018-06-24T09:50:01.407Z,340
2018-06-24T09:51:11.227Z,335
2018-06-24T09:52:21.336Z,320
2018-06-24T09:53:31.160Z,330
2018-06-24T09:54:41.244Z,315
2018-06-24T09:55:50.837Z,240
2018-06-24T09:57:00.405Z,230
2018-06-24T09:58:10.498Z,215
2018-06-24T09:59:20.653Z,210
2018-06-24T10:00:30.725Z,210
2018-06-24T10:01:40.813Z,220
2018-06-24T10:02:50.913Z,225
2018-06-24T10:04:00.760Z,230
2018-06-24T10:05:10.852Z,235
2018-06-24T10:06:20.933Z,245
2018-06-24T10:07:30.506Z,245
2018-06-24T10:08:40.590Z,245
2018-06-24T10:09:50.686Z,245
2018-06-24T10:11:00.579Z,245
2018-06-24T10:12:10.682Z,245
2018-06-24T10:13:20.774Z,235
2018-06-24T10:14:30.601Z,225
2018-06-24T10:15:40.692Z,220
2018-06-24T10:16:50.785Z,220
2018-06-24T10:18:00.946Z,210
2018-06-24T10:19:11.042Z,200
2018-06-24T10:20:21.188Z,200
2018-06-24T10:21:31.255Z,255
2018-06-24T10:22:40.864Z,290
2018-06-24T10:23:50.695Z,295
2018-06-24T10:25:00.772Z,310
2018-06-24T10:26:10.878Z,335
2018-06-24T10:27:20.962Z,360
2018-06-24T10:28:30.774Z,365
2018-06-24T10:29:41.040Z,340
2018-06-24T10:30:50.866Z,345
2018-06-24T10:32:00.962Z,355
2018-06-24T10:33:11.045Z,340
2018-06-24T10:34:20.878Z,330
2018-06-24T10:35:30.953Z,315
2018-06-24T10:36:40.762Z,310
2018-06-24T10:37:50.901Z,305
2018-06-24T10:39:01.002Z,295
2018-06-24T10:40:10.855Z,275
2018-06-24T10:41:21.312Z,240
2018-06-24T10:42:31.404Z,205
2018-06-24T10:43:41.496Z,170
2018-06-24T10:44:51.333Z,160
2018-06-24T10:46:01.455Z,165
2018-06-24T10:47:11.547Z,180
2018-06-24T10:48:21.367Z,195
2018-06-24T10:49:31.207Z,230
2018-06-24T10:50:41.285Z,250
2018-06-24T10:51:51.377Z,260
2018-06-24T10:53:01.462Z,265
2018-06-24T10:54:11.570Z,270
2018-06-24T10:55:21.681Z,265
2018-06-24T10:56:31.795Z,265
2018-06-24T10:57:41.897Z,280
2018-06-24T10:58:51.730Z,290
2018-06-24T11:00:01.833Z,295
2018-06-24T11:01:11.993Z,310
2018-06-24T11:02:22.133Z,325
2018-06-24T11:03:32.283Z,355
2018-06-24T11:04:42.363Z,430
2018-06-24T11:05:52.465Z,410
2018-06-24T11:07:02.611Z,415
2018-06-24T11:08:12.701Z,440
2018-06-24T11:09:22.789Z,345
2018-06-24T11:10:32.896Z,320
2018-06-24T11:11:43.001Z,265
2018-06-24T11:12:52.884Z,245
2018-06-24T11:14:02.754Z,220
2018-06-24T11:15:12.603Z,185
2018-06-24T11:16:22.451Z,150
2018-06-24T11:17:32.550Z,130
2018-06-24T11:18:42.720Z,115
2018-06-24T11:19:52.547Z,110
2018-06-24T11:21:02.109Z,115
2018-06-24T11:22:11.694Z,115
2018-06-24T11:23:21.780Z,120
2018-06-24T11:24:31.630Z,130
2018-06-24T11:25:41.716Z,140
2018-06-24T11:26:51.542Z,145
2018-06-24T11:28:01.621Z,155
2018-06-24T11:29:11.695Z,165
2018-06-24T11:30:21.524Z,170
2018-06-24T11:31:31.596Z,185
2018-06-24T11:32:41.418Z,195
2018-06-24T11:33:51.497Z,205
2018-06-24T11:35:01.612Z,220
2018-06-24T11:36:11.712Z,240
2018-06-24T11:37:21.583Z,255
2018-06-24T11:38:31.679Z,275
2018-06-24T11:39:41.754Z,285
2018-06-24T11:40:51.579Z,300
2018-06-24T11:42:01.691Z,310
2018-06-24T11:43:11.806Z,320
2018-06-24T11:44:21.624Z,325
2018-06-24T11:45:31.720Z,330
2018-06-24T11:46:41.815Z,330
2018-06-24T11:47:52.133Z,330
2018-06-24T11:49:02.273Z,370
2018-06-24T11:50:12.402Z,340
2018-06-24T11:51:22.243Z,340
2018-06-24T11:52:32.363Z,320
2018-06-24T11:53:42.499Z,310
2018-06-24T11:54:52.360Z,305
2018-06-24T11:56:02.459Z,345
2018-06-24T11:57:12.739Z,365
2018-06-24T11:58:22.830Z,335
2018-06-24T11:59:32.934Z,305
2018-06-24T12:00:43.008Z,295
2018-06-24T12:01:53.176Z,310
2018-06-24T12:03:03.276Z,315
2018-06-24T12:04:13.294Z,315
2018-06-24T12:05:23.133Z,330
2018-06-24T12:06:33.218Z,320
2018-06-24T12:07:43.302Z,345
2018-06-24T12:08:53.387Z,340
2018-06-24T12:10:03.731Z,305
2018-06-24T12:11:13.798Z,325
2018-06-24T12:12:23.365Z,380
2018-06-24T12:13:33.485Z,335
2018-06-24T12:14:43.575Z,285
2018-06-24T12:15:53.664Z,310
2018-06-24T12:17:03.797Z,325
2018-06-24T12:18:14.235Z,350
2018-06-24T12:19:24.121Z,385
2018-06-24T12:20:34.207Z,300
2018-06-24T12:21:44.299Z,300
2018-06-24T12:22:54.118Z,305
2018-06-24T12:24:04.221Z,375
2018-06-24T12:25:14.326Z,370
2018-06-24T12:26:24.411Z,345
2018-06-24T12:27:34.252Z,330
2018-06-24T12:28:44.424Z,330
2018-06-24T12:29:54.535Z,360
2018-06-24T12:31:04.437Z,275
2018-06-24T12:32:14.529Z,265
2018-06-24T12:33:24.107Z,245
2018-06-24T12:34:33.685Z,240
2018-06-24T12:35:43.760Z,235
2018-06-24T12:36:53.861Z,240
2018-06-24T12:38:03.980Z,250
2018-06-24T12:39:14.082Z,260
2018-06-24T12:40:24.190Z,260
2018-06-24T12:41:34.292Z,265
2018-06-24T12:42:44.398Z,275
2018-06-24T12:43:54.259Z,290
2018-06-24T12:45:04.365Z,295
2018-06-24T12:46:14.503Z,275
2018-06-24T12:47:24.620Z,260
2018-06-24T12:48:34.734Z,245
2018-06-24T12:49:44.595Z,220
2018-06-24T12:50:54.707Z,185
2018-06-24T12:52:04.845Z,165
2018-06-24T12:53:14.927Z,155
2018-06-24T12:54:25.021Z,150
2018-06-24T12:55:35.105Z,145
2018-06-24T12:56:44.933Z,145
2018-06-24T12:57:55.023Z,145
2018-06-24T12:59:06.384Z,140
2018-06-24T13:00:18.973Z,135
2018-06-24T13:01:29.428Z,135
2018-06-24T13:02:39.505Z,140
2018-06-24T13:03:49.645Z,140
2018-06-24T13:04:59.733Z,150
2018-06-24T13:06:09.809Z,160
2018-06-24T13:07:19.909Z,165
2018-06-24T13:08:30.012Z,165
2018-06-24T13:09:39.870Z,165
2018-06-24T13:10:49.694Z,160
2018-06-24T13:11:59.791Z,160
2018-06-24T13:13:09.893Z,155
2018-06-24T13:14:20.295Z,145
2018-06-24T13:15:30.403Z,145
2018-06-24T13:16:40.534Z,135
2018-06-24T13:17:50.663Z,235
2018-06-24T13:19:00.754Z,125
2018-06-24T13:20:10.844Z,110
2018-06-24T13:21:21.278Z,100
2018-06-24T13:22:31.366Z,90
2018-06-24T13:23:41.491Z,75
2018-06-24T13:24:51.577Z,70
2018-06-24T13:26:01.430Z,70
2018-06-24T13:27:11.583Z,70
2018-06-24T13:28:21.655Z,70
2018-06-24T13:29:31.750Z,70
2018-06-24T13:30:41.877Z,75
2018-06-24T13:31:51.688Z,85
2018-06-24T13:33:01.855Z,90
2018-06-24T13:34:11.954Z,95
2018-06-24T13:35:21.792Z,100
2018-06-24T13:36:31.875Z,105
2018-06-24T13:37:41.956Z,110
2018-06-24T13:38:52.039Z,110
2018-06-24T13:40:01.861Z,115
2018-06-24T13:41:11.696Z,125
2018-06-24T13:42:22.074Z,135
2018-06-24T13:43:32.244Z,145
2018-06-24T13:44:42.065Z,145
2018-06-24T13:45:52.163Z,150
2018-06-24T13:47:02.295Z,160
2018-06-24T13:48:12.137Z,170
2018-06-24T13:49:22.235Z,180
2018-06-24T13:50:32.084Z,195
2018-06-24T13:51:41.915Z,215
2018-06-24T13:52:52.019Z,215
2018-06-24T13:54:02.108Z,215
2018-06-24T13:55:12.190Z,210
2018-06-24T13:56:22.273Z,195
2018-06-24T13:57:32.346Z,185
2018-06-24T13:58:42.172Z,180
2018-06-24T13:59:52.254Z,170
2018-06-24T14:01:02.073Z,155
2018-06-24T14:02:12.407Z,145
2018-06-24T14:03:22.565Z,140
2018-06-24T14:04:32.680Z,130
2018-06-24T14:05:42.584Z,125
2018-06-24T14:06:52.415Z,125
2018-06-24T14:08:01.836Z,125
2018-06-24T14:09:11.986Z,125
2018-06-24T14:10:21.846Z,125
2018-06-24T14:11:31.680Z,125
2018-06-24T14:12:41.799Z,125
2018-06-24T14:13:51.926Z,125
2018-06-24T14:15:02.006Z,125
2018-06-24T14:16:12.103Z,125
2018-06-24T14:17:22.437Z,125
2018-06-24T14:18:32.543Z,120
2018-06-24T14:19:42.461Z,115
2018-06-24T14:20:52.289Z,120
2018-06-24T14:22:02.447Z,125
2018-06-24T14:23:12.752Z,135
2018-06-24T14:24:22.576Z,140
2018-06-24T14:25:32.655Z,145
2018-06-24T14:26:42.495Z,145
2018-06-24T14:27:52.582Z,150
2018-06-24T14:29:03.094Z,150
2018-06-24T14:30:13.281Z,150
2018-06-24T14:31:23.481Z,145
2018-06-24T14:32:33.590Z,135
2018-06-24T14:33:43.428Z,130
2018-06-24T14:34:53.523Z,130
2018-06-24T14:36:03.662Z,125
2018-06-24T14:37:13.864Z,120
2018-06-24T14:38:23.949Z,115
2018-06-24T14:39:34.026Z,115
2018-06-24T14:40:44.103Z,120
2018-06-24T14:41:53.969Z,135
2018-06-24T14:43:04.170Z,140
2018-06-24T14:44:14.579Z,150
2018-06-24T14:45:24.715Z,170
2018-06-24T14:46:34.868Z,190
2018-06-24T14:47:45.050Z,215
2018-06-24T14:48:55.279Z,240
2018-06-24T14:50:05.427Z,305
2018-06-24T14:51:15.579Z,305
2018-06-24T14:52:25.671Z,300
2018-06-24T14:53:35.792Z,265
2018-06-24T14:54:45.687Z,200
2018-06-24T14:55:55.273Z,185
2018-06-24T14:57:05.389Z,175
2018-06-24T14:58:15.477Z,165
2018-06-24T14:59:25.723Z,155
2018-06-24T15:00:35.859Z,145
2018-06-24T15:01:46.239Z,140
2018-06-24T15:02:56.429Z,140
2018-06-24T15:04:06.509Z,145
2018-06-24T15:05:16.607Z,155
2018-06-24T15:06:26.513Z,170
2018-06-24T15:07:36.365Z,190
2018-06-24T15:08:46.451Z,205
2018-06-24T15:09:56.032Z,190
2018-06-24T15:11:05.874Z,170
2018-06-24T15:12:15.915Z,155
2018-06-24T15:13:26.106Z,140
2018-06-24T15:14:36.200Z,130
2018-06-24T15:15:46.024Z,110
2018-06-24T15:16:55.861Z,100
2018-06-24T15:18:05.947Z,100
2018-06-24T15:19:16.108Z,95
2018-06-24T15:20:26.215Z,100
2018-06-24T15:21:36.051Z,105
2018-06-24T15:22:46.151Z,115
2018-06-24T15:23:56.238Z,130
2018-06-24T15:25:06.329Z,150
2018-06-24T15:26:16.423Z,175
2018-06-24T15:27:26.512Z,200
2018-06-24T15:28:36.589Z,225
2018-06-24T15:29:46.459Z,245
2018-06-24T15:30:56.548Z,260
2018-06-24T15:32:06.650Z,265
2018-06-24T15:33:16.749Z,260
2018-06-24T15:34:26.819Z,250
2018-06-24T15:35:36.911Z,260
2018-06-24T15:36:47.004Z,240
2018-06-24T15:37:57.375Z,230
2018-06-24T15:39:07.475Z,205
2018-06-24T15:40:17.581Z,195
2018-06-24T15:41:27.454Z,175
2018-06-24T15:42:37.539Z,165
2018-06-24T15:43:47.362Z,155
2018-06-24T15:44:56.928Z,140
2018-06-24T15:46:06.759Z,130
2018-06-24T15:47:16.654Z,130
2018-06-24T15:48:26.274Z,130
2018-06-24T15:49:36.371Z,140
2018-06-24T15:50:46.453Z,145
2018-06-24T15:51:56.308Z,150
2018-06-24T15:53:06.405Z,160
2018-06-24T15:54:16.492Z,160
2018-06-24T15:55:26.610Z,165
2018-06-24T15:56:36.222Z,175
2018-06-24T15:57:46.049Z,185
2018-06-24T15:58:56.137Z,190
2018-06-24T16:00:06.239Z,185
2018-06-24T16:01:16.346Z,185
2018-06-24T16:02:26.445Z,185
2018-06-24T16:03:36.545Z,180
2018-06-24T16:04:46.659Z,180
2018-06-24T16:05:56.481Z,185
2018-06-24T16:07:06.315Z,180
2018-06-24T16:08:16.399Z,175
2018-06-24T16:09:26.518Z,170
2018-06-24T16:10:36.626Z,165
2018-06-24T16:11:46.731Z,150
2018-06-24T16:12:56.574Z,145
2018-06-24T16:14:06.680Z,135
2018-06-24T16:15:16.507Z,120
2018-06-24T16:16:26.341Z,110
2018-06-24T16:17:36.443Z,110
2018-06-24T16:18:46.543Z,100
2018-06-24T16:19:56.403Z,95
2018-06-24T16:21:08.466Z,95
2018-06-24T16:22:18.651Z,90
2018-06-24T16:23:28.787Z,85
2018-06-24T16:24:38.886Z,85
2018-06-24T16:25:49.003Z,85
2018-06-24T16:26:59.131Z,90
2018-06-24T16:28:09.248Z,95
2018-06-24T16:29:19.148Z,105
2018-06-24T16:30:29.339Z,110
2018-06-24T16:31:39.439Z,115
2018-06-24T16:32:49.546Z,120
2018-06-24T16:33:59.710Z,120
2018-06-24T16:35:09.843Z,125
2018-06-24T16:36:19.971Z,130
2018-06-24T16:37:30.097Z,130
2018-06-24T16:38:39.942Z,135
2018-06-24T16:39:50.106Z,135
2018-06-24T16:41:00.187Z,135
2018-06-24T16:42:10.025Z,125
2018-06-24T16:43:20.260Z,120
2018-06-24T16:44:30.347Z,115
2018-06-24T16:45:40.485Z,110
2018-06-24T16:46:50.571Z,105
2018-06-24T16:48:00.674Z,100
2018-06-24T16:49:10.784Z,95
2018-06-24T16:50:20.875Z,90